Time;durP1;ratioP1;P1;durP2;ratioP2;P2;SDS_P1;SDS_P2;PMS_P1;PMS_P2;Temp;Humidity;BMP_temperature;BMP_pressure;BME280_temperature;BME280_humidity;BME280_pressure;Samples;Min_cycle;Max_cycle;Signal;HPM_P1;HPM_P2
2022/03/07 04:42:34;;;;;;;12.43;11.32;;;0.80;34.50;;;;;;20562;6635;280951;31
2022/03/07 04:44:59;;;;;;;12.70;11.80;;;1.00;35.00;;;;;;20675;6803;307882;31
2022/03/07 04:47:24;;;;;;;10.40;9.60;;;1.50;34.90;;;;;;20919;6805;121130;31
2022/03/07 04:49:50;;;;;;;10.33;9.53;;;1.60;34.20;;;;;;20889;6792;115811;31
2022/03/07 04:52:16;;;;;;;12.05;11.20;;;1.50;34.10;;;;;;20607;6833;308654;31
2022/03/07 04:54:41;;;;;;;10.35;9.63;;;1.60;34.50;;;;;;20801;6833;118307;31
2022/03/07 04:57:07;;;;;;;12.60;11.60;;;1.70;34.20;;;;;;20650;6833;306844;31
2022/03/07 04:59:32;;;;;;;11.00;10.20;;;1.80;34.40;;;;;;20865;6833;116213;31
2022/03/07 05:01:58;;;;;;;10.70;9.77;;;1.80;34.10;;;;;;20854;6833;116575;31
2022/03/07 05:04:24;;;;;;;12.30;11.32;;;1.60;34.00;;;;;;20641;6833;306698;31
2022/03/07 05:06:49;;;;;;;12.13;11.03;;;1.70;34.50;;;;;;20844;6833;117473;31
2022/03/07 05:09:15;;;;;;;12.73;11.73;;;1.70;34.20;;;;;;20653;6833;277472;31
2022/03/07 05:11:40;;;;;;;10.73;9.83;;;1.80;34.30;;;;;;20858;6833;119962;31
2022/03/07 05:14:06;;;;;;;10.63;9.73;;;1.80;34.00;;;;;;20794;6833;118880;31
2022/03/07 05:16:31;;;;;;;10.35;9.55;;;1.60;34.20;;;;;;20792;6833;118982;31
2022/03/07 05:18:57;;;;;;;10.75;9.70;;;1.40;34.30;;;;;;20774;6834;118816;31
2022/03/07 05:21:23;;;;;;;10.23;9.35;;;1.30;34.50;;;;;;20791;6834;117210;31
2022/03/07 05:23:48;;;;;;;11.02;10.10;;;1.20;34.60;;;;;;20797;6834;117124;31
2022/03/07 05:26:14;;;;;;;13.68;12.52;;;1.10;34.70;;;;;;20593;6834;290492;31
2022/03/07 05:28:39;;;;;;;13.27;12.23;;;1.30;35.40;;;;;;20561;6834;337168;31
2022/03/07 05:31:08;;;;;;;12.35;11.25;;;1.70;35.20;;;;;;20793;6834;117804;31
2022/03/07 05:33:31;;;;;;;10.68;9.77;;;1.80;34.60;;;;;;20795;6834;117456;31
2022/03/07 05:35:56;;;;;;;11.32;10.32;;;1.60;34.50;;;;;;20803;6834;118094;31
2022/03/07 05:38:22;;;;;;;13.43;12.43;;;1.40;34.60;;;;;;20594;6834;277907;31
2022/03/07 05:40:47;;;;;;;11.85;10.75;;;1.50;35.10;;;;;;20784;6834;117431;31
2022/03/07 05:43:13;;;;;;;14.55;13.35;;;1.50;34.80;;;;;;20592;6834;278132;31
2022/03/07 05:45:38;;;;;;;11.52;10.63;;;1.70;35.10;;;;;;20799;6834;116987;31
2022/03/07 05:48:04;;;;;;;14.43;13.27;;;1.70;34.70;;;;;;20589;6834;309642;31
2022/03/07 05:50:30;;;;;;;11.63;10.63;;;1.70;34.90;;;;;;20680;6869;118198;31
2022/03/07 05:52:55;;;;;;;12.30;11.20;;;1.70;34.70;;;;;;20780;6832;117041;31
2022/03/07 05:55:21;;;;;;;14.00;13.00;;;1.60;34.80;;;;;;20586;6833;308619;31
2022/03/07 05:57:46;;;;;;;14.60;13.50;;;1.70;35.30;;;;;;20581;6833;306396;31
2022/03/07 06:00:12;;;;;;;14.73;13.52;;;2.00;34.90;;;;;;20576;6833;339596;31
2022/03/07 06:02:38;;;;;;;15.18;14.05;;;2.20;34.40;;;;;;20473;6869;309147;31
2022/03/07 06:05:03;;;;;;;14.97;13.77;;;2.50;34.10;;;;;;20566;6833;280924;31
2022/03/07 06:07:29;;;;;;;14.38;13.18;;;2.60;33.90;;;;;;20474;6869;308657;31
2022/03/07 06:09:54;;;;;;;14.70;13.60;;;2.70;33.70;;;;;;20580;6833;310142;31
2022/03/07 06:12:20;;;;;;;15.20;13.90;;;2.80;33.60;;;;;;20495;6865;279875;31
2022/03/07 06:14:45;;;;;;;14.57;13.40;;;2.80;33.50;;;;;;20572;6834;278610;31
2022/03/07 06:17:18;;;;;;;15.10;13.82;;;2.90;33.50;;;;;;20540;6834;316173;31
2022/03/07 06:19:43;;;;;;;15.10;13.90;;;2.90;33.30;;;;;;20626;6834;336749;31
2022/03/07 06:22:10;;;;;;;13.30;12.10;;;3.00;33.40;;;;;;20836;6834;116876;31
2022/03/07 06:24:36;;;;;;;11.90;10.87;;;2.80;33.50;;;;;;20789;6834;117914;31
2022/03/07 06:27:02;;;;;;;14.83;13.63;;;2.40;33.80;;;;;;20639;6834;306514;31
2022/03/07 06:29:28;;;;;;;12.60;11.63;;;2.40;34.30;;;;;;20709;6869;117015;31
2022/03/07 06:31:53;;;;;;;12.70;11.60;;;2.40;34.20;;;;;;20813;6834;117552;31
2022/03/07 06:34:20;;;;;;;11.43;10.43;;;2.20;34.30;;;;;;20827;6834;118129;31
2022/03/07 06:36:46;;;;;;;12.80;11.77;;;2.00;34.50;;;;;;20802;6834;118081;31
2022/03/07 06:39:12;;;;;;;14.53;13.40;;;1.90;34.60;;;;;;20604;6834;308372;31
2022/03/07 06:41:38;;;;;;;12.60;11.43;;;2.20;35.00;;;;;;20810;6834;116910;31
2022/03/07 06:44:04;;;;;;;12.50;11.33;;;2.30;34.70;;;;;;20803;6834;116193;31
2022/03/07 06:46:30;;;;;;;14.47;13.33;;;2.30;34.70;;;;;;20491;6865;280360;31
2022/03/07 06:48:59;;;;;;;13.03;11.73;;;2.50;34.70;;;;;;20778;6834;118826;31
2022/03/07 06:51:24;;;;;;;14.53;13.40;;;2.70;34.60;;;;;;20538;6834;320803;31
2022/03/07 06:53:50;;;;;;;12.50;11.30;;;2.90;34.10;;;;;;20800;6834;117847;31
2022/03/07 06:56:17;;;;;;;14.40;13.30;;;3.10;34.00;;;;;;20586;6834;319537;31
2022/03/07 06:58:41;;;;;;;13.13;12.03;;;3.30;33.70;;;;;;20693;6865;127859;31
2022/03/07 07:01:07;;;;;;;12.60;11.60;;;3.30;33.40;;;;;;20806;6834;117232;31
2022/03/07 07:03:34;;;;;;;14.77;13.57;;;3.20;33.50;;;;;;20509;6863;283298;31
2022/03/07 07:06:00;;;;;;;12.83;11.60;;;3.30;33.50;;;;;;20802;6833;117908;31
2022/03/07 07:08:25;;;;;;;12.83;11.63;;;3.40;33.30;;;;;;20707;6865;117190;31
2022/03/07 07:10:51;;;;;;;15.20;13.98;;;3.30;33.40;;;;;;20571;6833;311010;31
2022/03/07 07:13:26;;;;;;;12.57;11.30;;;3.40;33.20;;;;;;20796;6833;117198;31
2022/03/07 07:15:43;;;;;;;14.50;13.40;;;3.50;33.20;;;;;;20503;6833;278790;31
2022/03/07 07:18:08;;;;;;;13.43;12.17;;;3.70;33.00;;;;;;20805;6833;117255;31
2022/03/07 07:20:44;;;;;;;12.18;11.15;;;3.70;32.80;;;;;;20701;6866;117567;31
2022/03/07 07:22:59;;;;;;;11.53;10.33;;;3.60;32.90;;;;;;20735;6833;121161;31
2022/03/07 07:25:36;;;;;;;14.37;13.17;;;3.50;33.10;;;;;;20590;6834;309113;31
2022/03/07 07:28:05;;;;;;;13.40;12.10;;;3.70;33.10;;;;;;20800;6834;116658;31
2022/03/07 07:30:35;;;;;;;12.83;11.63;;;3.70;32.80;;;;;;20792;6834;117562;31
2022/03/07 07:33:01;;;;;;;13.27;11.97;;;3.70;32.90;;;;;;20784;6834;117275;31
2022/03/07 07:35:26;;;;;;;14.87;13.57;;;3.60;33.00;;;;;;20587;6834;310543;31
2022/03/07 07:37:52;;;;;;;15.53;14.33;;;3.80;33.00;;;;;;20579;6834;310868;31
2022/03/07 07:40:17;;;;;;;13.15;11.95;;;4.20;32.50;;;;;;20762;6834;117266;31
2022/03/07 07:42:43;;;;;;;14.03;12.93;;;4.30;32.30;;;;;;20446;6866;279925;31
2022/03/07 07:45:09;;;;;;;15.03;13.73;;;4.40;32.20;;;;;;20558;6838;308097;31
2022/03/07 07:47:34;;;;;;;12.47;11.47;;;4.80;31.90;;;;;;20786;6838;116918;31
2022/03/07 07:50:00;;;;;;;12.20;11.20;;;4.80;31.60;;;;;;20777;6851;117452;31
2022/03/07 07:52:35;;;;;;;;;;;;;;;;;;;;;
2022/03/07 07:54:51;;;;;;;12.30;11.30;;;4.80;32.00;;;;;;20694;6843;120277;31
2022/03/07 07:57:16;;;;;;;12.63;10.93;;;4.80;31.70;;;;;;20756;6845;117004;31
2022/03/07 07:59:42;;;;;;;19.85;13.40;;;4.80;32.00;;;;;;20545;6845;337988;31
2022/03/07 08:02:08;;;;;;;13.50;12.07;;;5.00;31.70;;;;;;20752;6845;117180;31
2022/03/07 08:04:33;;;;;;;12.27;11.07;;;5.10;31.40;;;;;;20753;6848;117681;31
2022/03/07 08:06:59;;;;;;;13.87;12.87;;;5.00;31.20;;;;;;20523;6848;308139;31
2022/03/07 08:09:24;;;;;;;13.40;12.30;;;5.10;31.10;;;;;;20548;6848;303252;31
2022/03/07 08:11:50;;;;;;;13.07;11.87;;;5.40;31.10;;;;;;20749;6848;117431;31
2022/03/07 08:14:20;;;;;;;11.83;10.57;;;5.50;31.00;;;;;;20745;6848;117113;31
2022/03/07 08:16:48;;;;;;;11.53;10.63;;;5.40;31.10;;;;;;20643;6846;118370;31
2022/03/07 08:19:14;;;;;;;12.00;10.90;;;5.40;31.30;;;;;;20714;6860;117187;31
2022/03/07 08:21:39;;;;;;;11.93;10.93;;;5.30;31.30;;;;;;20708;6860;117197;31
2022/03/07 08:24:08;;;;;;;13.47;11.10;;;5.20;31.30;;;;;;20720;6860;119353;31
2022/03/07 08:26:34;;;;;;;14.47;12.70;;;5.20;31.50;;;;;;20761;6842;117250;31
2022/03/07 08:28:59;;;;;;;12.10;10.93;;;5.20;31.50;;;;;;20744;6842;117588;31
2022/03/07 08:31:25;;;;;;;13.10;11.95;;;5.20;31.60;;;;;;20548;6842;337916;31
2022/03/07 08:33:50;;;;;;;11.20;10.35;;;5.50;31.20;;;;;;20775;6843;117243;31
2022/03/07 08:36:16;;;;;;;13.30;12.30;;;5.80;30.90;;;;;;20519;6848;338190;31
2022/03/07 08:38:42;;;;;;;13.67;12.50;;;6.00;30.10;;;;;;20496;6856;308232;31
2022/03/07 08:41:07;;;;;;;13.38;12.27;;;6.50;30.10;;;;;;20506;6856;310631;31
2022/03/07 08:43:33;;;;;;;13.13;12.23;;;6.80;29.40;;;;;;20511;6856;336259;31
2022/03/07 08:45:58;;;;;;;13.05;11.85;;;7.10;28.50;;;;;;20722;6856;117231;31
2022/03/07 08:48:24;;;;;;;11.63;10.53;;;7.00;28.40;;;;;;20727;6856;117580;31
2022/03/07 08:50:49;;;;;;;12.55;11.45;;;6.80;28.60;;;;;;20706;6855;118891;31
2022/03/07 08:53:15;;;;;;;12.33;11.30;;;6.50;28.80;;;;;;20741;6855;118662;31
2022/03/07 08:55:41;;;;;;;13.20;12.20;;;6.40;29.10;;;;;;20584;6855;307205;31
2022/03/07 08:58:06;;;;;;;14.10;12.90;;;6.50;28.80;;;;;;20533;6855;336652;31
2022/03/07 09:00:32;;;;;;;13.47;12.40;;;6.80;28.90;;;;;;20531;6855;328005;31
2022/03/07 09:02:59;;;;;;;11.07;10.17;;;7.10;27.80;;;;;;20732;6855;117130;31
2022/03/07 09:05:25;;;;;;;11.43;10.47;;;7.00;27.70;;;;;;20726;6855;116536;31
2022/03/07 09:07:51;;;;;;;13.87;12.87;;;6.80;27.90;;;;;;20539;6855;306574;31
2022/03/07 09:10:17;;;;;;;11.23;10.37;;;6.90;27.70;;;;;;20749;6855;116566;31
2022/03/07 09:13:42;;;;;;;12.20;11.20;;;6.90;28.00;;;;;;20746;6855;118864;31
2022/03/07 09:16:14;;;;;;;13.55;12.48;;;6.80;28.20;;;;;;20418;6855;307145;31
2022/03/07 09:18:48;;;;;;;13.55;12.52;;;7.10;28.10;;;;;;20562;6764;306772;-89
2022/03/07 09:21:33;;;;;;;13.02;12.02;;;7.50;27.30;;;;;;20536;6773;282601;-88
2022/03/07 09:23:59;;;;;;;12.43;11.63;;;7.70;27.00;;;;;;20508;6791;296193;-89
2022/03/07 09:26:38;;;;;;;12.23;11.10;;;7.90;26.60;;;;;;20705;6802;117451;-87
2022/03/07 09:29:14;;;;;;;11.47;10.57;;;7.80;26.90;;;;;;20808;6763;117424;-88
2022/03/07 09:32:00;;;;;;;;;;;;;;;;;;;;;
2022/03/07 09:34:26;;;;;;;13.23;12.07;;;7.80;26.80;;;;;;20309;6778;279206;-91
2022/03/07 09:37:04;;;;;;;13.02;12.13;;;8.00;26.70;;;;;;20311;6760;279700;-89
2022/03/07 09:39:38;;;;;;;11.47;10.67;;;8.00;26.70;;;;;;20744;6760;117178;-89
2022/03/07 09:42:14;;;;;;;11.13;10.33;;;8.00;26.90;;;;;;20572;6781;67183;-89
2022/03/07 09:44:51;;;;;;;12.53;11.57;;;7.90;27.50;;;;;;20650;6764;278765;-88
2022/03/07 09:47:28;;;;;;;15.45;14.27;;;7.90;27.50;;;;;;20535;6764;307896;-89
2022/03/07 09:50:03;;;;;;;15.87;13.60;;;8.30;26.50;;;;;;20852;6764;117181;-90
2022/03/07 09:52:39;;;;;;;12.00;10.90;;;7.90;26.50;;;;;;20821;6768;117717;-89
2022/03/07 09:55:17;;;;;;;12.37;11.50;;;7.90;26.50;;;;;;20594;6764;307060;-89
2022/03/07 09:57:53;;;;;;;12.67;11.70;;;8.00;26.10;;;;;;20629;6769;119155;-90
2022/03/07 10:00:41;;;;;;;15.03;13.93;;;8.00;26.50;;;;;;20579;6768;286372;-89
2022/03/07 10:03:09;;;;;;;12.13;11.20;;;8.10;26.60;;;;;;20529;6779;336091;-90
2022/03/07 10:05:47;;;;;;;12.50;11.60;;;8.30;25.90;;;;;;20238;6747;283103;-89
2022/03/07 10:08:26;;;;;;;12.73;11.70;;;8.60;26.40;;;;;;20361;6881;283755;-86
2022/03/07 10:11:03;;;;;;;12.97;12.07;;;8.80;25.80;;;;;;20568;6763;276941;-88
2022/03/07 10:13:40;;;;;;;13.50;12.60;;;8.90;25.70;;;;;;20604;6763;277796;-91
2022/03/07 10:16:17;;;;;;;12.57;11.60;;;9.00;25.80;;;;;;20636;6747;337158;-89
2022/03/07 10:18:53;;;;;;;12.57;11.57;;;9.10;25.90;;;;;;20613;6730;277302;-88
2022/03/07 10:21:28;;;;;;;12.70;11.80;;;9.20;25.90;;;;;;20688;6730;283281;-87
2022/03/07 10:24:04;;;;;;;12.17;11.30;;;9.30;25.60;;;;;;20686;6730;309413;-87
2022/03/07 10:26:41;;;;;;;13.30;12.40;;;9.50;25.30;;;;;;20463;6730;326240;-90
2022/03/07 10:29:16;;;;;;;11.77;10.87;;;9.50;25.30;;;;;;20860;6747;67562;-88
2022/03/07 10:31:52;;;;;;;11.90;10.90;;;9.30;25.40;;;;;;20760;6822;117273;-87
2022/03/07 10:34:28;;;;;;;12.00;10.90;;;8.90;25.70;;;;;;20707;6769;117464;-88
2022/03/07 10:37:03;;;;;;;12.77;11.88;;;8.60;26.10;;;;;;20517;6771;324697;-88
2022/03/07 10:39:46;;;;;;;11.88;11.15;;;8.70;26.10;;;;;;20564;6771;307424;-89
2022/03/07 10:42:22;;;;;;;12.60;11.73;;;9.00;26.10;;;;;;20498;6788;294317;-88
2022/03/07 10:45:05;;;;;;;12.00;11.00;;;9.20;25.50;;;;;;20700;6783;117671;-92
2022/03/07 10:47:42;;;;;;;12.00;11.10;;;9.10;25.70;;;;;;20632;6793;118859;-90
2022/03/07 10:50:18;;;;;;;12.30;11.50;;;8.90;26.10;;;;;;20576;6793;312727;-88
2022/03/07 10:52:53;;;;;;;11.80;10.97;;;8.90;25.90;;;;;;20670;6813;123338;-90
2022/03/07 10:55:30;;;;;;;11.80;11.10;;;8.80;25.90;;;;;;20505;6775;309093;-90
2022/03/07 10:58:09;;;;;;;12.17;11.37;;;8.90;25.70;;;;;;20423;6778;284132;-92
2022/03/07 11:00:51;;;;;;;11.13;10.33;;;9.10;25.30;;;;;;20799;6809;117716;-92
2022/03/07 11:03:28;;;;;;;11.17;10.23;;;9.10;25.50;;;;;;20772;6779;117606;-90
2022/03/07 11:06:09;;;;;;;11.90;10.83;;;8.80;25.70;;;;;;20874;6723;117105;-89
2022/03/07 11:08:47;;;;;;;10.53;9.67;;;8.60;25.90;;;;;;20889;6738;117415;-90
2022/03/07 11:11:23;;;;;;;11.23;10.33;;;8.40;26.00;;;;;;20534;6803;117552;-88
2022/03/07 11:13:58;;;;;;;12.13;11.13;;;8.30;26.10;;;;;;20791;6783;117591;-90
2022/03/07 11:16:34;;;;;;;10.80;9.90;;;8.20;26.30;;;;;;20764;6770;119090;-89
2022/03/07 11:19:12;;;;;;;10.40;9.70;;;8.20;26.70;;;;;;20792;6758;70000;-90
2022/03/07 11:21:50;;;;;;;12.30;11.40;;;8.30;26.80;;;;;;20595;6776;307762;-87
2022/03/07 11:24:22;;;;;;;11.83;11.03;;;8.60;26.40;;;;;;20605;6772;307142;-88
2022/03/07 11:26:59;;;;;;;12.37;11.47;;;9.00;25.80;;;;;;20455;6773;280558;-87
2022/03/07 11:29:38;;;;;;;11.33;10.43;;;9.30;25.20;;;;;;20802;6754;117708;-88
2022/03/07 11:32:20;;;;;;;10.60;9.73;;;9.20;25.40;;;;;;20864;6767;117195;-89
2022/03/07 11:35:05;;;;;;;;;;;;;;;;;;;;;
2022/03/07 11:37:42;;;;;;;11.13;10.30;;;9.10;25.60;;;;;;20661;6748;117600;-88
2022/03/07 11:40:24;;;;;;;10.50;9.70;;;9.10;25.10;;;;;;20894;6760;119922;-86
2022/03/07 11:43:01;;;;;;;10.50;9.70;;;9.10;25.30;;;;;;20842;6762;116673;-87
2022/03/07 11:45:38;;;;;;;10.70;9.83;;;9.00;25.40;;;;;;20824;6759;116176;-89
2022/03/07 11:48:13;;;;;;;11.40;10.60;;;9.00;25.40;;;;;;20515;6762;307901;-86
2022/03/07 11:50:49;;;;;;;11.47;10.57;;;9.20;24.70;;;;;;20996;6732;118671;-85
2022/03/07 11:53:27;;;;;;;10.53;9.63;;;9.20;24.60;;;;;;20855;6761;117308;-93
2022/03/07 11:56:07;;;;;;;11.20;10.50;;;9.10;24.70;;;;;;20636;6764;306673;-94
2022/03/07 11:58:46;;;;;;;11.55;10.82;;;9.20;23.90;;;;;;20284;6746;338092;-94
2022/03/07 12:01:38;;;;;;;10.40;9.70;;;9.40;23.70;;;;;;20687;6762;120169;-95
2022/03/07 12:04:18;;;;;;;12.23;11.43;;;9.20;23.90;;;;;;20715;6738;275084;-95
2022/03/07 12:09:25;;;;;;;10.87;9.97;;;9.20;23.70;;;;;;20563;6755;120048;-93
2022/03/07 12:12:01;;;;;;;10.80;10.00;;;8.90;23.80;;;;;;20707;6737;116417;-82
2022/03/07 12:17:28;;;;;;;11.83;11.00;;;8.40;24.50;;;;;;20442;6755;277731;-94
2022/03/07 12:20:04;;;;;;;11.40;10.40;;;8.80;25.10;;;;;;20739;6746;117540;-94
2022/03/07 12:22:38;;;;;;;10.93;10.07;;;8.70;24.50;;;;;;20885;6746;117196;-95
2022/03/07 12:25:13;;;;;;;13.27;11.23;;;8.70;24.50;;;;;;20584;6769;279464;-96
2022/03/07 12:27:56;;;;;;;13.40;11.83;;;9.10;24.00;;;;;;20555;6749;277678;-88
2022/03/07 12:30:32;;;;;;;12.68;11.35;;;9.10;24.00;;;;;;20651;6749;310361;-89
2022/03/07 12:33:08;;;;;;;22.07;12.00;;;9.40;23.10;;;;;;20832;6753;117296;-89
2022/03/07 12:35:46;;;;;;;10.70;10.00;;;9.20;23.30;;;;;;20796;6739;119841;-88
2022/03/07 12:38:19;;;;;;;14.13;11.50;;;8.90;23.50;;;;;;20397;6774;310596;-89
2022/03/07 12:40:54;;;;;;;11.87;10.97;;;8.90;24.00;;;;;;20836;6748;117046;-91
2022/03/07 12:43:30;;;;;;;10.70;9.90;;;8.80;24.00;;;;;;20559;6734;117140;-86
2022/03/07 12:46:06;;;;;;;12.13;11.05;;;8.70;24.10;;;;;;20647;6753;335094;-90
2022/03/07 12:48:45;;;;;;;35.27;11.63;;;8.70;24.10;;;;;;20627;6820;123377;-87
2022/03/07 12:51:21;;;;;;;48.40;13.27;;;8.70;24.10;;;;;;20962;6734;117614;-91
2022/03/07 12:53:59;;;;;;;10.97;9.97;;;8.50;24.60;;;;;;20904;6734;116884;-89
2022/03/07 12:56:38;;;;;;;12.30;11.40;;;8.30;24.70;;;;;;20676;6743;289255;-90
2022/03/07 12:59:14;;;;;;;11.17;10.37;;;8.50;24.30;;;;;;20725;6791;120252;-89
2022/03/07 13:01:49;;;;;;;11.10;10.27;;;8.50;24.30;;;;;;20785;6759;119840;-88
2022/03/07 13:04:26;;;;;;;12.82;11.65;;;8.40;24.30;;;;;;20508;6781;308501;-88
2022/03/07 13:07:06;;;;;;;11.77;10.87;;;8.50;24.40;;;;;;20690;6765;122743;-88
2022/03/07 13:09:42;;;;;;;11.53;10.50;;;8.50;24.50;;;;;;20772;6774;123796;-86
2022/03/07 13:12:18;;;;;;;11.27;10.27;;;8.30;24.20;;;;;;20688;6790;117402;-86
2022/03/07 13:14:53;;;;;;;10.87;9.97;;;8.10;24.30;;;;;;20756;6790;117961;-87
2022/03/07 13:17:29;;;;;;;11.17;10.07;;;8.00;24.50;;;;;;20615;6788;117580;-87
2022/03/07 13:20:16;;;;;;;;;;;;;;;;;;;;;
2022/03/07 13:22:41;;;;;;;12.23;11.32;;;7.80;24.60;;;;;;19182;6830;296683;-89
2022/03/07 13:25:17;;;;;;;12.03;11.03;;;8.00;24.20;;;;;;20693;6768;117406;-89
2022/03/07 13:28:05;;;;;;;;;;;;;;;;;;;;;
2022/03/07 13:30:32;;;;;;;12.93;10.37;;;8.30;24.10;;;;;;20699;6765;120226;-88
2022/03/07 13:33:08;;;;;;;13.10;11.90;;;8.30;23.90;;;;;;20544;6775;295495;-88
2022/03/07 13:35:43;;;;;;;11.73;10.93;;;8.40;24.20;;;;;;20532;6775;117509;-89
2022/03/07 13:38:19;;;;;;;11.77;10.97;;;8.30;24.10;;;;;;20415;6748;67351;-85
2022/03/07 13:40:55;;;;;;;10.63;9.83;;;8.10;24.20;;;;;;20765;6770;119767;-85
2022/03/07 13:43:30;;;;;;;12.33;11.40;;;7.90;24.50;;;;;;20661;6742;335241;-88
2022/03/07 13:46:13;;;;;;;12.07;11.18;;;8.10;24.20;;;;;;20655;6733;307469;-88
2022/03/07 13:48:48;;;;;;;11.63;10.63;;;8.40;24.20;;;;;;19021;6743;117938;-88
2022/03/07 13:51:30;;;;;;;12.30;11.07;;;8.30;23.90;;;;;;20766;6772;114375;-89
2022/03/07 13:54:16;;;;;;;;;;;;;;;;;;;;;
2022/03/07 13:56:53;;;;;;;12.23;11.30;;;8.50;24.20;;;;;;20471;6757;314678;-86
2022/03/07 13:59:22;;;;;;;11.70;10.90;;;8.50;24.10;;;;;;20593;6762;302895;-87
2022/03/07 14:01:57;;;;;;;11.23;10.50;;;8.80;24.10;;;;;;20854;6787;117852;-89
2022/03/07 14:04:42;;;;;;;;;;;;;;;;;;;;;
2022/03/07 14:09:49;;;;;;;10.43;9.73;;;8.20;24.30;;;;;;20516;6750;67309;-86
2022/03/07 14:12:33;;;;;;;10.87;10.07;;;8.00;24.40;;;;;;20871;6737;116964;-87
2022/03/07 14:15:09;;;;;;;12.70;11.80;;;7.70;24.30;;;;;;20640;6736;335200;-88
2022/03/07 14:17:45;;;;;;;10.97;10.07;;;7.90;24.30;;;;;;20622;6766;120955;-88
2022/03/07 14:20:21;;;;;;;11.77;10.97;;;7.90;24.30;;;;;;20670;6738;299881;-89
2022/03/07 14:22:57;;;;;;;16.77;10.87;;;8.00;24.20;;;;;;20741;6751;117414;-85
2022/03/07 14:25:42;;;;;;;;;;;;;;;;;;;;;
2022/03/07 14:28:08;;;;;;;11.83;11.03;;;7.80;24.40;;;;;;20466;6738;338115;-86
2022/03/07 14:30:43;;;;;;;13.10;11.87;;;8.00;24.50;;;;;;20870;6751;121500;-87
2022/03/07 14:33:21;;;;;;;11.10;10.20;;;8.00;24.40;;;;;;20765;6765;117493;-88
2022/03/07 14:35:57;;;;;;;12.77;11.70;;;8.00;24.40;;;;;;20431;6765;307717;-88
2022/03/07 14:38:32;;;;;;;11.87;10.97;;;7.90;24.30;;;;;;20777;6763;117716;-89
2022/03/07 14:41:17;;;;;;;11.13;10.13;;;7.90;24.20;;;;;;20793;6762;117396;-88
2022/03/07 14:43:44;;;;;;;11.03;10.13;;;7.80;24.30;;;;;;20835;6777;117791;-88
2022/03/07 14:46:19;;;;;;;12.80;11.90;;;7.60;24.30;;;;;;20519;6761;311913;-88
2022/03/07 14:48:55;;;;;;;11.93;11.02;;;7.70;24.40;;;;;;20496;6765;307745;-88
2022/03/07 14:51:31;;;;;;;12.47;11.57;;;8.10;24.30;;;;;;20562;6777;314460;-88
2022/03/07 14:54:06;;;;;;;12.00;11.07;;;8.40;23.70;;;;;;20645;6742;117123;-87
2022/03/07 14:56:41;;;;;;;11.70;10.90;;;8.30;23.70;;;;;;20750;6767;117616;-87
2022/03/07 14:59:17;;;;;;;12.40;11.50;;;8.00;23.80;;;;;;20476;6799;346972;-89
2022/03/07 15:01:53;;;;;;;12.47;11.57;;;8.20;23.70;;;;;;20615;6741;329926;-84
2022/03/07 15:04:29;;;;;;;11.93;11.00;;;8.20;23.60;;;;;;20898;6741;117108;-89
2022/03/07 15:07:06;;;;;;;12.17;11.17;;;8.10;23.70;;;;;;20795;6741;120546;-84
2022/03/07 15:09:51;;;;;;;11.20;10.23;;;7.80;23.90;;;;;;20882;6743;117046;-88
2022/03/07 15:12:17;;;;;;;12.27;11.27;;;7.60;24.00;;;;;;20820;6758;117633;-85
2022/03/07 15:14:53;;;;;;;13.20;12.27;;;7.50;24.20;;;;;;20585;6766;311157;-86
2022/03/07 15:17:29;;;;;;;13.55;12.65;;;7.50;24.10;;;;;;20512;6762;282519;-85
2022/03/07 15:20:05;;;;;;;13.00;12.05;;;7.90;23.70;;;;;;20670;6731;275992;-86
2022/03/07 15:22:40;;;;;;;12.57;11.40;;;8.10;23.30;;;;;;20871;6743;122774;-84
2022/03/07 15:25:16;;;;;;;12.70;11.70;;;8.00;23.60;;;;;;20873;6750;117224;-85
2022/03/07 15:27:53;;;;;;;17.05;15.48;;;7.70;23.40;;;;;;20455;6767;341419;-86
2022/03/07 15:30:30;;;;;;;13.83;12.83;;;7.70;23.50;;;;;;20600;6764;313901;-87
2022/03/07 15:33:05;;;;;;;13.03;12.03;;;8.00;23.30;;;;;;20779;6766;120554;-88
2022/03/07 15:35:41;;;;;;;13.90;12.90;;;7.90;23.50;;;;;;20550;6769;308989;-87
2022/03/07 15:38:17;;;;;;;13.38;12.37;;;7.90;23.50;;;;;;20387;6785;310811;-86
2022/03/07 15:40:53;;;;;;;12.80;11.90;;;8.10;23.20;;;;;;20792;6763;117532;-86
2022/03/07 15:43:28;;;;;;;13.90;12.90;;;8.00;23.40;;;;;;20573;6769;306916;-89
2022/03/07 15:46:07;;;;;;;14.13;13.13;;;8.10;23.40;;;;;;20627;6756;306442;-88
2022/03/07 15:48:43;;;;;;;14.60;13.40;;;8.20;23.00;;;;;;20532;6786;308088;-85
2022/03/07 15:51:19;;;;;;;13.20;12.17;;;8.10;23.00;;;;;;20801;6756;117433;-85
2022/03/07 15:53:55;;;;;;;12.80;11.80;;;8.10;23.00;;;;;;20793;6771;121922;-84
2022/03/07 15:56:31;;;;;;;13.43;12.00;;;7.70;23.30;;;;;;20810;6771;117556;-84
2022/03/07 15:59:06;;;;;;;14.25;13.25;;;7.40;23.50;;;;;;20593;6751;340521;-84
2022/03/07 16:01:42;;;;;;;12.77;11.67;;;7.50;23.60;;;;;;20693;6800;118941;-86
2022/03/07 16:04:18;;;;;;;12.23;11.23;;;7.40;23.60;;;;;;20798;6799;119792;-86
2022/03/07 16:06:57;;;;;;;12.63;11.63;;;7.10;23.50;;;;;;20727;6766;117370;-87
2022/03/07 16:09:33;;;;;;;13.33;12.13;;;6.90;23.70;;;;;;20823;6763;118070;-86
2022/03/07 16:12:08;;;;;;;13.55;12.55;;;6.70;23.80;;;;;;20602;6763;336147;-87
2022/03/07 16:14:44;;;;;;;12.57;11.47;;;6.80;24.10;;;;;;20759;6772;117226;-87
2022/03/07 16:17:21;;;;;;;14.13;13.03;;;6.90;23.70;;;;;;20513;6770;309222;-86
2022/03/07 16:19:56;;;;;;;13.30;12.23;;;6.90;23.60;;;;;;20891;6727;117027;-87
2022/03/07 16:22:41;;;;;;;;;;;;;;;;;;;;;
2022/03/07 16:25:07;;;;;;;13.83;12.60;;;6.60;23.70;;;;;;20934;6732;117326;-86
2022/03/07 16:27:42;;;;;;;13.47;12.33;;;6.30;23.80;;;;;;20755;6747;117538;-86
2022/03/07 16:30:19;;;;;;;15.13;13.93;;;6.30;24.40;;;;;;20733;6732;306088;-86
2022/03/07 16:32:54;;;;;;;18.93;17.10;;;6.30;24.40;;;;;;20779;6746;118455;-86
2022/03/07 16:35:30;;;;;;;13.83;12.53;;;6.30;24.20;;;;;;20736;6774;117432;-86
2022/03/07 16:38:06;;;;;;;13.30;12.10;;;5.90;24.40;;;;;;20648;6772;117626;-87
2022/03/07 16:40:42;;;;;;;14.87;13.80;;;5.90;24.40;;;;;;20583;6763;336643;-88
2022/03/07 16:43:18;;;;;;;14.77;13.57;;;6.00;24.60;;;;;;20815;6817;116422;-87
2022/03/07 16:46:02;;;;;;;16.60;15.30;;;6.00;24.50;;;;;;20662;6761;334665;-86
2022/03/07 16:48:28;;;;;;;14.43;13.23;;;6.20;24.70;;;;;;20531;6782;117468;-88
2022/03/07 16:51:04;;;;;;;13.47;12.37;;;6.10;24.50;;;;;;20854;6768;116418;-87
2022/03/07 16:53:51;;;;;;;;;;;;;;;;;;;;;
2022/03/07 16:56:30;;;;;;;13.57;12.37;;;5.70;24.60;;;;;;21176;6514;67036;-86
2022/03/07 16:58:56;;;;;;;14.77;13.35;;;5.60;24.80;;;;;;20795;6841;116525;-86
2022/03/07 17:01:21;;;;;;;16.25;14.57;;;5.50;24.90;;;;;;20831;6838;68048;-87
2022/03/07 17:03:49;;;;;;;15.23;13.90;;;5.30;25.00;;;;;;20719;6838;119367;-86
2022/03/07 17:06:13;;;;;;;17.02;15.60;;;5.20;25.10;;;;;;20562;6818;307221;-86
2022/03/07 17:08:42;;;;;;;17.93;16.53;;;5.40;25.40;;;;;;20579;6822;307809;-86
2022/03/07 17:11:09;;;;;;;19.70;17.90;;;6.10;24.80;;;;;;20572;6822;307576;-87
2022/03/07 17:13:35;;;;;;;16.87;15.10;;;6.10;25.20;;;;;;20795;6822;117260;-86
2022/03/07 17:16:00;;;;;;;16.57;14.97;;;6.00;25.00;;;;;;20758;6822;117614;-87
2022/03/07 17:18:26;;;;;;;18.95;17.45;;;5.80;25.10;;;;;;20536;6833;337452;-87
2022/03/07 17:20:51;;;;;;;19.67;17.77;;;5.80;25.30;;;;;;20741;6833;142041;-87
2022/03/07 17:23:17;;;;;;;21.83;19.83;;;5.70;25.20;;;;;;20592;6818;319314;-87
2022/03/07 17:25:43;;;;;;;17.90;16.40;;;6.10;25.00;;;;;;20581;6818;290704;-88
2022/03/07 17:28:10;;;;;;;16.53;15.07;;;6.00;25.00;;;;;;20653;6843;117631;-86
2022/03/07 17:30:36;;;;;;;17.90;16.50;;;5.90;25.00;;;;;;20481;6843;308257;-87
2022/03/07 17:33:01;;;;;;;18.13;16.73;;;5.90;25.00;;;;;;20497;6828;307734;-86
2022/03/07 17:35:27;;;;;;;17.93;16.30;;;6.10;24.90;;;;;;20739;6843;119358;-84
2022/03/07 17:37:53;;;;;;;16.43;14.93;;;5.60;25.10;;;;;;20733;6842;117363;-85
2022/03/07 17:40:20;;;;;;;16.13;14.53;;;5.60;25.00;;;;;;20703;6842;117472;-86
2022/03/07 17:42:48;;;;;;;19.27;17.67;;;5.30;25.20;;;;;;20458;6854;309033;-89
2022/03/07 17:45:14;;;;;;;17.67;16.20;;;5.30;25.40;;;;;;20674;6857;120324;-85
2022/03/07 17:47:41;;;;;;;17.80;16.40;;;5.30;25.30;;;;;;20469;6852;280299;-89
2022/03/07 17:50:07;;;;;;;16.03;14.40;;;5.40;25.50;;;;;;20743;6839;123510;-87
2022/03/07 17:52:34;;;;;;;15.53;14.13;;;5.10;25.50;;;;;;20717;6839;122307;-87
2022/03/07 17:55:00;;;;;;;15.20;13.93;;;4.90;25.90;;;;;;20700;6846;117339;-87
2022/03/07 17:57:26;;;;;;;17.67;16.20;;;4.90;25.60;;;;;;20503;6846;337660;-91